Time;durP1;ratioP1;P1;durP2;ratioP2;P2;SDS_P1;SDS_P2;PMS_P1;PMS_P2;Temp;Humidity;BMP_temperature;BMP_pressure;BME280_temperature;BME280_humidity;BME280_pressure;Samples;Min_cycle;Max_cycle;Signal;HPM_P1;HPM_P2
2022/07/09 00:00:18;;;;;;;4.25;1.76;;;17.40;99.90;;;;;;5002302;28;10001375;-74
2022/07/09 00:02:43;;;;;;;2.25;1.50;;;17.30;99.90;;;;;;4692526;28;9999914;-74
2022/07/09 00:05:09;;;;;;;2.53;1.23;;;17.30;99.90;;;;;;5040129;28;20030;-74
2022/07/09 00:07:35;;;;;;;3.75;1.60;;;17.30;99.90;;;;;;5044434;28;20112;-74
2022/07/09 00:10:00;;;;;;;2.80;1.40;;;17.20;99.90;;;;;;5040498;28;20025;-74
2022/07/09 00:12:26;;;;;;;1.92;1.23;;;17.10;99.90;;;;;;5041085;28;20064;-74
2022/07/09 00:14:51;;;;;;;2.80;1.20;;;17.10;99.90;;;;;;5043705;28;20082;-74
2022/07/09 00:17:17;;;;;;;2.58;1.10;;;17.10;99.90;;;;;;5044590;28;20021;-74
2022/07/09 00:19:42;;;;;;;2.83;1.20;;;17.10;99.90;;;;;;5045222;28;20068;-74
2022/07/09 00:22:08;;;;;;;3.22;1.30;;;17.00;99.90;;;;;;5045552;28;20025;-74
2022/07/09 00:24:34;;;;;;;2.33;1.40;;;17.00;99.90;;;;;;5043800;28;20548;-74
2022/07/09 00:26:59;;;;;;;3.38;1.30;;;17.00;99.90;;;;;;5045664;28;20067;-74
2022/07/09 00:29:25;;;;;;;1.63;1.17;;;16.90;99.90;;;;;;5042428;28;20386;-74
2022/07/09 00:31:50;;;;;;;2.50;1.40;;;16.80;99.90;;;;;;5044663;28;20500;-74
2022/07/09 00:34:16;;;;;;;3.50;1.45;;;16.80;99.90;;;;;;5040106;28;20028;-74
2022/07/09 00:36:41;;;;;;;2.63;1.33;;;16.80;99.90;;;;;;5058677;28;20032;-74
2022/07/09 00:39:07;;;;;;;2.88;1.52;;;16.80;99.90;;;;;;5043174;28;20028;-74
2022/07/09 00:41:33;;;;;;;3.17;1.65;;;16.70;99.90;;;;;;5044032;28;20535;-74
2022/07/09 00:43:58;;;;;;;2.50;1.42;;;16.70;99.90;;;;;;5045422;28;20029;-74
2022/07/09 00:46:24;;;;;;;3.13;1.48;;;16.60;99.90;;;;;;5047799;28;20017;-74
2022/07/09 00:48:49;;;;;;;2.05;1.63;;;16.60;99.90;;;;;;5037550;28;20021;-74
2022/07/09 00:51:17;;;;;;;2.13;1.65;;;16.50;99.90;;;;;;5042186;28;20123;-74
2022/07/09 00:53:45;;;;;;;2.80;1.55;;;16.50;99.90;;;;;;5045761;28;20035;-74
2022/07/09 00:56:12;;;;;;;4.78;1.58;;;16.40;99.90;;;;;;5041261;28;20048;-74
2022/07/09 00:58:38;;;;;;;3.42;1.83;;;16.40;99.90;;;;;;5043974;28;20052;-74
2022/07/09 01:01:04;;;;;;;3.03;1.58;;;16.40;99.90;;;;;;5043273;28;20532;-74
2022/07/09 01:03:30;;;;;;;5.57;2.20;;;16.40;99.90;;;;;;5027497;28;20029;-75
2022/07/09 01:05:56;;;;;;;4.03;1.88;;;16.40;99.90;;;;;;5039898;28;20021;-74
2022/07/09 01:08:22;;;;;;;4.53;1.77;;;16.30;99.90;;;;;;5040655;28;20106;-74
2022/07/09 01:10:50;;;;;;;3.35;1.75;;;16.30;99.90;;;;;;5041366;28;20021;-74
2022/07/09 01:13:16;;;;;;;2.92;1.63;;;;;;;;;;5036417;28;20032;-75
2022/07/09 01:15:42;;;;;;;2.63;1.60;;;;;;;;;;5038602;28;20017;-74
2022/07/09 01:18:11;;;;;;;2.60;1.48;;;16.00;99.90;;;;;;5043631;28;20135;-75
2022/07/09 01:20:37;;;;;;;2.17;1.55;;;16.10;99.90;;;;;;5043350;28;20056;-75
2022/07/09 01:23:02;;;;;;;1.77;1.33;;;16.00;99.90;;;;;;5038278;28;20470;-74
2022/07/09 01:25:48;;;;;;;2.35;1.52;;;16.00;99.90;;;;;;5039011;28;20512;-74
2022/07/09 01:28:14;;;;;;;3.25;1.73;;;16.00;99.90;;;;;;5026730;28;22058;-75
2022/07/09 01:30:40;;;;;;;2.90;1.58;;;16.00;99.90;;;;;;5039969;28;20074;-74
2022/07/09 01:33:07;;;;;;;4.30;1.70;;;15.90;99.90;;;;;;5040209;28;20033;-74
2022/07/09 01:35:32;;;;;;;3.88;1.50;;;15.90;99.90;;;;;;5043887;28;20045;-75
2022/07/09 01:37:58;;;;;;;4.05;1.85;;;15.90;99.90;;;;;;5048429;28;20040;-74
2022/07/09 01:40:24;;;;;;;2.83;1.73;;;15.90;99.90;;;;;;5041262;28;20048;-75
2022/07/09 01:42:50;;;;;;;2.70;1.58;;;15.80;99.90;;;;;;5037973;28;20473;-74
2022/07/09 01:45:16;;;;;;;2.13;1.48;;;15.80;99.90;;;;;;5035613;28;20036;-74
2022/07/09 01:47:42;;;;;;;2.60;1.60;;;15.80;99.90;;;;;;5042072;28;20029;-74
2022/07/09 01:50:08;;;;;;;2.85;1.60;;;15.80;99.90;;;;;;5035613;28;20252;-75
2022/07/09 01:52:35;;;;;;;2.75;1.73;;;15.80;99.90;;;;;;5044100;28;20021;-74
2022/07/09 01:55:01;;;;;;;3.47;1.90;;;15.80;99.90;;;;;;5041677;28;20474;-75
2022/07/09 01:57:27;;;;;;;2.95;1.73;;;15.70;99.90;;;;;;5035689;28;20040;-74
2022/07/09 01:59:53;;;;;;;2.90;1.50;;;15.70;99.90;;;;;;5037372;28;20033;-74
2022/07/09 02:02:19;;;;;;;2.97;1.80;;;15.70;99.90;;;;;;5041372;28;20412;-74
2022/07/09 02:04:46;;;;;;;3.13;1.70;;;15.60;99.90;;;;;;5039019;28;20473;-74
2022/07/09 02:07:13;;;;;;;4.10;2.00;;;15.60;99.90;;;;;;5037199;28;20310;-75
2022/07/09 02:09:38;;;;;;;3.78;2.15;;;15.60;99.90;;;;;;5039635;28;20033;-74
2022/07/09 02:12:05;;;;;;;5.40;2.72;;;15.60;99.90;;;;;;5046674;28;20543;-75
2022/07/09 02:14:31;;;;;;;4.00;2.58;;;15.60;99.90;;;;;;5028605;28;20018;-74
2022/07/09 02:16:57;;;;;;;3.70;2.30;;;15.50;99.90;;;;;;5043612;28;20585;-74
2022/07/09 02:19:23;;;;;;;2.95;2.10;;;15.50;99.90;;;;;;5040433;28;20040;-74
2022/07/09 02:21:48;;;;;;;5.10;2.35;;;15.40;99.90;;;;;;5043823;28;20029;-74
2022/07/09 02:24:14;;;;;;;2.20;1.80;;;15.40;99.90;;;;;;5040729;28;20203;-74
2022/07/09 02:26:40;;;;;;;3.35;2.33;;;15.40;99.90;;;;;;5034868;28;20037;-74
2022/07/09 02:29:06;;;;;;;3.90;2.22;;;15.40;99.90;;;;;;5049046;28;20033;-74
2022/07/09 02:31:31;;;;;;;2.63;2.03;;;15.40;99.90;;;;;;5044965;28;20068;-75
2022/07/09 02:33:57;;;;;;;2.97;2.10;;;15.30;99.90;;;;;;5047611;28;20044;-74
2022/07/09 02:36:23;;;;;;;2.78;2.10;;;15.20;99.90;;;;;;5040326;28;20060;-74
2022/07/09 02:38:49;;;;;;;3.40;2.20;;;15.20;99.90;;;;;;5046417;28;20108;-75
2022/07/09 02:41:14;;;;;;;3.30;2.17;;;15.20;99.90;;;;;;5048217;28;20045;-75
2022/07/09 02:43:43;;;;;;;3.03;1.92;;;15.10;99.90;;;;;;5044274;28;20496;-75
2022/07/09 02:46:09;;;;;;;3.05;2.20;;;15.10;99.90;;;;;;5049787;28;20032;-74
2022/07/09 02:48:35;;;;;;;2.47;2.03;;;15.10;99.90;;;;;;5038129;28;20158;-74
2022/07/09 02:51:00;;;;;;;2.30;1.95;;;15.20;99.90;;;;;;5058812;28;20384;-74
2022/07/09 02:53:26;;;;;;;2.88;1.80;;;15.20;99.90;;;;;;5036597;28;20108;-74
2022/07/09 02:55:52;;;;;;;4.30;1.92;;;15.20;99.90;;;;;;5043884;28;20025;-74
2022/07/09 02:58:18;;;;;;;3.13;2.20;;;15.20;99.90;;;;;;5045833;28;20126;-75
2022/07/09 03:00:43;;;;;;;4.28;2.50;;;15.20;99.90;;;;;;5049733;28;20029;-74
2022/07/09 03:03:09;;;;;;;6.43;2.53;;;15.20;99.90;;;;;;5049440;28;20033;-74
2022/07/09 03:05:35;;;;;;;3.53;2.20;;;15.20;99.90;;;;;;5043358;28;20661;-74
2022/07/09 03:08:02;;;;;;;2.70;2.00;;;15.20;99.90;;;;;;5044572;28;20047;-74
2022/07/09 03:10:28;;;;;;;3.72;2.33;;;15.20;99.90;;;;;;5043355;28;20082;-74
2022/07/09 03:12:53;;;;;;;3.47;2.38;;;15.20;99.90;;;;;;5043863;28;20487;-74
2022/07/09 03:15:19;;;;;;;4.05;2.30;;;15.10;99.90;;;;;;5046598;28;20029;-74
2022/07/09 03:17:45;;;;;;;5.18;2.42;;;15.10;99.90;;;;;;5044126;28;20020;-74
2022/07/09 03:20:12;;;;;;;5.78;2.63;;;15.10;99.90;;;;;;5047503;28;20640;-75
2022/07/09 03:22:38;;;;;;;4.38;2.30;;;15.20;99.90;;;;;;5046840;28;20438;-74
2022/07/09 03:25:05;;;;;;;5.00;2.25;;;15.20;99.90;;;;;;5043382;28;20032;-75
2022/07/09 03:27:30;;;;;;;5.13;2.55;;;15.20;99.90;;;;;;5042297;28;20085;-74
2022/07/09 03:29:56;;;;;;;4.93;2.30;;;15.20;99.90;;;;;;5046370;28;20021;-74
2022/07/09 03:32:21;;;;;;;3.00;2.55;;;15.20;99.90;;;;;;5045283;28;20641;-74
2022/07/09 03:34:47;;;;;;;3.85;2.28;;;15.20;99.90;;;;;;5059437;28;20073;-75
2022/07/09 03:37:13;;;;;;;5.50;3.03;;;15.20;99.90;;;;;;5041621;28;20029;-74
2022/07/09 03:39:40;;;;;;;7.35;2.88;;;15.20;99.90;;;;;;5038449;28;20080;-75
2022/07/09 03:42:09;;;;;;;8.52;2.78;;;15.20;99.90;;;;;;5043759;28;20821;-75
2022/07/09 03:44:34;;;;;;;6.90;2.63;;;15.10;99.90;;;;;;5047091;28;20028;-75
2022/07/09 03:47:00;;;;;;;4.45;2.50;;;15.20;99.90;;;;;;5034445;28;20075;-75
2022/07/09 03:49:26;;;;;;;4.05;2.50;;;15.20;99.90;;;;;;5040452;28;20025;-74
2022/07/09 03:51:52;;;;;;;5.72;2.97;;;15.20;99.90;;;;;;5047549;28;20493;-74
2022/07/09 03:54:17;;;;;;;3.35;2.78;;;15.30;99.90;;;;;;5051550;28;20118;-74
2022/07/09 03:56:43;;;;;;;5.20;3.20;;;15.20;99.90;;;;;;5042958;28;20032;-74
2022/07/09 03:59:08;;;;;;;2.75;2.53;;;15.30;99.90;;;;;;5036659;28;20056;-74
2022/07/09 04:01:34;;;;;;;5.82;2.88;;;15.30;99.90;;;;;;5041245;28;20032;-74
2022/07/09 04:03:59;;;;;;;6.43;2.80;;;15.30;99.90;;;;;;5044976;28;20029;-75
2022/07/09 04:06:25;;;;;;;5.40;2.70;;;15.30;99.90;;;;;;5047276;28;20033;-74
2022/07/09 04:08:51;;;;;;;5.80;3.00;;;15.30;99.90;;;;;;5038590;28;20050;-74
2022/07/09 04:11:16;;;;;;;3.95;2.63;;;15.40;99.90;;;;;;5044721;28;20169;-74
2022/07/09 04:13:42;;;;;;;4.78;2.97;;;15.30;99.90;;;;;;5051939;28;20107;-74
2022/07/09 04:16:08;;;;;;;5.10;2.67;;;15.40;99.90;;;;;;5046425;28;20375;-74
2022/07/09 04:18:34;;;;;;;7.00;3.10;;;15.40;99.90;;;;;;5036123;28;20056;-74
2022/07/09 04:21:00;;;;;;;4.63;2.83;;;15.40;99.90;;;;;;5043920;28;20503;-74
2022/07/09 04:23:26;;;;;;;6.13;2.67;;;15.50;99.90;;;;;;5045127;28;20241;-74
2022/07/09 04:25:52;;;;;;;4.18;2.47;;;15.60;99.90;;;;;;5043159;28;20124;-74
2022/07/09 04:28:18;;;;;;;6.03;3.08;;;15.50;99.90;;;;;;5038008;28;20078;-74
2022/07/09 04:30:47;;;;;;;4.78;2.40;;;15.60;99.90;;;;;;5033801;28;20401;-75
2022/07/09 04:33:13;;;;;;;4.45;2.80;;;15.60;99.90;;;;;;5047533;28;20639;-74
2022/07/09 04:35:39;;;;;;;3.85;2.60;;;15.70;99.90;;;;;;5045969;28;20048;-76
2022/07/09 04:38:05;;;;;;;3.40;2.70;;;15.70;99.90;;;;;;5039229;28;20477;-75
2022/07/09 04:40:30;;;;;;;5.07;2.90;;;15.70;99.90;;;;;;5032069;28;20040;-76
2022/07/09 04:42:56;;;;;;;4.32;2.60;;;15.80;99.90;;;;;;5043353;28;20120;-76
2022/07/09 04:45:22;;;;;;;4.22;2.50;;;15.80;99.90;;;;;;5045665;28;20388;-75
2022/07/09 04:47:47;;;;;;;3.35;2.63;;;15.90;99.90;;;;;;5061550;28;20033;-76
2022/07/09 04:50:13;;;;;;;4.35;2.45;;;15.90;99.90;;;;;;5038122;28;20033;-76
2022/07/09 04:52:39;;;;;;;8.15;2.83;;;15.90;99.90;;;;;;5029685;28;20067;-76
2022/07/09 04:55:06;;;;;;;5.13;2.92;;;15.90;99.90;;;;;;5031041;28;20132;-76
2022/07/09 04:57:32;;;;;;;4.20;2.60;;;15.90;99.90;;;;;;5041724;28;20080;-76
2022/07/09 04:59:58;;;;;;;5.63;2.47;;;15.90;99.90;;;;;;5043694;28;20028;-76
2022/07/09 05:02:24;;;;;;;3.03;2.08;;;15.90;99.90;;;;;;5041959;28;20037;-76
2022/07/09 05:04:50;;;;;;;4.47;2.58;;;15.90;99.90;;;;;;5035252;28;20063;-76
2022/07/09 05:07:15;;;;;;;4.05;2.60;;;15.90;99.90;;;;;;5036192;28;20025;-76
2022/07/09 05:09:41;;;;;;;4.07;2.60;;;15.90;99.90;;;;;;5042349;28;20028;-75
2022/07/09 05:12:08;;;;;;;3.47;2.40;;;15.90;99.90;;;;;;5042387;28;20124;-76
2022/07/09 05:14:34;;;;;;;3.40;2.60;;;15.90;99.90;;;;;;5039260;28;20021;-76
2022/07/09 05:16:59;;;;;;;5.03;3.08;;;15.90;99.90;;;;;;5043118;28;20039;-76
2022/07/09 05:19:25;;;;;;;5.47;2.78;;;15.90;99.90;;;;;;5040592;28;20036;-76
2022/07/09 05:21:51;;;;;;;4.85;2.67;;;15.90;99.90;;;;;;5039642;28;20047;-76
2022/07/09 05:24:16;;;;;;;4.43;2.50;;;16.00;99.90;;;;;;5041272;28;23459;-76
2022/07/09 05:26:42;;;;;;;4.22;2.60;;;16.10;99.90;;;;;;5041009;28;20033;-76
2022/07/09 05:29:07;;;;;;;4.43;2.60;;;16.10;99.90;;;;;;5037752;28;20467;-76
2022/07/09 05:31:33;;;;;;;3.85;2.50;;;16.10;99.90;;;;;;5044370;28;20447;-76
2022/07/09 05:34:00;;;;;;;6.60;2.80;;;16.20;99.90;;;;;;5044353;28;20043;-76
2022/07/09 05:36:28;;;;;;;6.82;3.25;;;16.30;99.90;;;;;;5043772;28;20041;-76
2022/07/09 05:38:55;;;;;;;6.47;2.78;;;16.30;99.90;;;;;;5033700;28;20664;-76
2022/07/09 05:41:22;;;;;;;3.88;2.72;;;16.30;99.90;;;;;;5064708;28;20033;-76
2022/07/09 05:43:48;;;;;;;4.82;2.60;;;16.40;99.90;;;;;;5042737;28;20769;-75
2022/07/09 05:46:13;;;;;;;5.10;2.60;;;16.50;99.90;;;;;;5033831;28;20147;-75
2022/07/09 05:48:39;;;;;;;5.82;2.90;;;16.70;99.90;;;;;;5041918;28;20682;-75
2022/07/09 05:51:05;;;;;;;7.88;3.13;;;16.70;99.90;;;;;;5062679;28;20060;-75
2022/07/09 05:53:30;;;;;;;5.88;3.03;;;16.70;99.90;;;;;;5042891;28;20425;-75
2022/07/09 05:55:56;;;;;;;3.75;2.63;;;16.70;99.90;;;;;;5038399;28;20163;-75
2022/07/09 05:58:22;;;;;;;4.75;2.80;;;16.70;99.90;;;;;;5044366;28;20321;-75
2022/07/09 06:00:47;;;;;;;7.97;3.10;;;16.70;99.90;;;;;;5039119;28;20449;-75
2022/07/09 06:03:13;;;;;;;4.15;2.83;;;16.80;99.90;;;;;;5041231;28;20159;-75
2022/07/09 06:05:39;;;;;;;6.45;3.00;;;16.70;99.90;;;;;;5036554;28;20028;-75
2022/07/09 06:08:04;;;;;;;6.95;3.20;;;16.70;99.90;;;;;;5037299;28;20037;-75
2022/07/09 06:10:30;;;;;;;8.82;3.10;;;16.80;99.90;;;;;;5034254;28;20021;-76
2022/07/09 06:12:55;;;;;;;5.35;3.20;;;16.70;99.90;;;;;;5038338;28;20156;-76
2022/07/09 06:15:21;;;;;;;4.88;3.30;;;16.70;99.90;;;;;;5043016;28;20044;-76
2022/07/09 06:17:50;;;;;;;6.68;3.10;;;16.70;99.90;;;;;;5040680;28;20144;-76
2022/07/09 06:20:16;;;;;;;5.47;2.78;;;16.70;99.90;;;;;;5036679;28;20123;-76
2022/07/09 06:22:42;;;;;;;5.15;2.70;;;16.70;99.90;;;;;;5040057;28;23959;-76
2022/07/09 06:25:08;;;;;;;4.57;3.17;;;16.70;99.90;;;;;;5040646;28;20045;-76
2022/07/09 06:27:34;;;;;;;6.82;3.42;;;16.70;99.90;;;;;;5038657;28;20037;-76
2022/07/09 06:30:00;;;;;;;7.43;2.90;;;16.70;99.90;;;;;;5039618;28;20029;-76
2022/07/09 06:32:26;;;;;;;4.78;3.00;;;16.80;99.90;;;;;;5041088;28;20501;-76
2022/07/09 06:34:51;;;;;;;6.05;3.13;;;16.80;99.90;;;;;;5047602;28;20074;-76
2022/07/09 06:37:17;;;;;;;3.88;2.88;;;16.80;99.90;;;;;;5031598;28;20043;-76
2022/07/09 06:39:46;;;;;;;5.65;3.33;;;16.90;99.90;;;;;;5041042;28;20055;-76
2022/07/09 06:42:13;;;;;;;5.68;3.22;;;17.10;99.90;;;;;;5038007;28;20037;-76
2022/07/09 06:44:39;;;;;;;5.85;3.40;;;17.10;99.90;;;;;;5042125;28;20485;-77
2022/07/09 06:47:05;;;;;;;5.68;3.13;;;17.20;99.90;;;;;;5037238;28;20061;-77
2022/07/09 06:49:31;;;;;;;5.38;3.10;;;17.40;99.90;;;;;;5039761;28;20071;-76
2022/07/09 06:51:57;;;;;;;4.78;3.00;;;17.50;99.90;;;;;;5034607;28;20079;-76
2022/07/09 06:54:23;;;;;;;5.57;3.05;;;17.70;99.90;;;;;;5041073;28;20259;-76
2022/07/09 06:56:49;;;;;;;5.95;2.97;;;17.80;99.90;;;;;;5040799;28;20119;-76
2022/07/09 06:59:18;;;;;;;4.20;3.00;;;17.90;99.90;;;;;;5035952;28;20551;-77
2022/07/09 07:01:44;;;;;;;7.20;3.22;;;18.00;99.90;;;;;;5040997;28;20029;-76
2022/07/09 07:04:11;;;;;;;3.30;2.83;;;18.10;99.90;;;;;;5036427;28;20029;-75
2022/07/09 07:06:37;;;;;;;6.70;3.00;;;18.10;99.90;;;;;;5028779;28;20033;-74
2022/07/09 07:09:03;;;;;;;4.13;2.83;;;18.20;99.90;;;;;;5037149;28;20024;-74
2022/07/09 07:11:29;;;;;;;5.63;2.90;;;18.30;99.90;;;;;;5042253;28;20025;-74
2022/07/09 07:13:54;;;;;;;4.05;2.63;;;18.40;99.90;;;;;;5031144;28;20873;-74
2022/07/09 07:16:20;;;;;;;3.85;2.70;;;18.80;99.90;;;;;;5041146;28;20043;-74
2022/07/09 07:18:45;;;;;;;5.75;3.20;;;19.20;99.90;;;;;;5038072;28;20045;-74
2022/07/09 07:21:11;;;;;;;5.68;3.08;;;19.40;99.90;;;;;;5038563;28;20037;-74
2022/07/09 07:23:36;;;;;;;6.53;2.97;;;19.60;99.90;;;;;;5049889;28;20485;-74
2022/07/09 07:26:02;;;;;;;6.05;3.30;;;20.00;99.90;;;;;;5035975;28;20050;-74
2022/07/09 07:28:28;;;;;;;7.07;3.70;;;20.20;99.90;;;;;;5041249;28;20036;-74
2022/07/09 07:30:54;;;;;;;5.55;3.55;;;20.30;99.90;;;;;;5038645;28;20025;-74
2022/07/09 07:33:20;;;;;;;7.85;3.53;;;20.30;99.90;;;;;;5047983;28;20033;-74
2022/07/09 07:35:45;;;;;;;7.95;3.22;;;20.20;99.90;;;;;;5043348;28;20512;-75
2022/07/09 07:38:11;;;;;;;4.63;3.30;;;20.20;99.90;;;;;;5044704;28;20119;-75
2022/07/09 07:40:36;;;;;;;4.80;3.38;;;20.40;99.90;;;;;;5031295;28;20497;-75
2022/07/09 07:43:05;;;;;;;5.88;2.90;;;20.50;99.90;;;;;;5042225;28;20064;-75
2022/07/09 07:45:31;;;;;;;6.28;3.40;;;20.50;99.90;;;;;;5039387;28;20032;-76
2022/07/09 07:48:30;;;;;;;8.48;3.20;;;20.60;99.90;;;;;;5042244;28;20490;-75
2022/07/09 07:50:56;;;;;;;3.90;3.10;;;20.60;99.90;;;;;;5038960;28;20111;-74
2022/07/09 07:53:22;;;;;;;24.63;7.93;;;20.40;99.90;;;;;;5041478;28;20029;-74
2022/07/09 07:55:48;;;;;;;7.88;3.95;;;20.30;99.90;;;;;;5046870;28;20021;-74
2022/07/09 07:58:14;;;;;;;5.72;3.40;;;20.10;99.90;;;;;;5040745;28;20025;-74
2022/07/09 08:00:39;;;;;;;5.88;3.67;;;20.00;99.90;;;;;;5042994;28;20035;-74
2022/07/09 08:03:05;;;;;;;8.32;4.00;;;20.00;99.90;;;;;;5038164;28;20398;-74
2022/07/09 08:05:31;;;;;;;5.03;2.70;;;20.10;99.90;;;;;;5046390;28;20399;-74
2022/07/09 08:07:57;;;;;;;3.67;2.55;;;20.30;99.90;;;;;;5046546;28;20079;-74
2022/07/09 08:10:24;;;;;;;5.70;2.50;;;20.50;99.90;;;;;;5030220;28;20269;-74
2022/07/09 08:12:49;;;;;;;6.22;2.60;;;21.30;99.90;;;;;;5036381;28;20117;-74
2022/07/09 08:15:15;;;;;;;3.70;1.95;;;21.90;99.90;;;;;;5045120;28;20493;-74
2022/07/09 08:17:41;;;;;;;3.70;2.10;;;22.20;99.90;;;;;;5037043;28;20236;-74
2022/07/09 08:20:07;;;;;;;4.10;2.10;;;22.40;99.90;;;;;;5044985;28;20370;-74
2022/07/09 08:22:32;;;;;;;2.00;1.70;;;22.40;99.90;;;;;;5051563;28;20032;-74
2022/07/09 08:24:58;;;;;;;4.22;1.45;;;22.40;99.90;;;;;;5045353;28;20029;-74
2022/07/09 08:27:24;;;;;;;1.40;0.80;;;22.50;99.90;;;;;;5038694;28;20028;-74
2022/07/09 08:29:49;;;;;;;1.55;0.75;;;22.20;99.90;;;;;;5033010;28;20108;-74
2022/07/09 08:32:15;;;;;;;0.65;0.63;;;22.20;99.90;;;;;;5033486;28;20355;-74
2022/07/09 08:34:41;;;;;;;1.77;0.85;;;22.50;99.90;;;;;;5040718;28;20041;-74
2022/07/09 08:37:06;;;;;;;2.55;0.80;;;22.90;99.90;;;;;;5037800;28;20520;-74
2022/07/09 08:39:32;;;;;;;1.70;0.70;;;23.20;99.90;;;;;;5043410;28;20507;-74
2022/07/09 08:41:59;;;;;;;0.60;0.45;;;23.40;99.90;;;;;;5033730;28;20053;-74
2022/07/09 08:44:30;;;;;;;2.00;0.70;;;23.40;99.90;;;;;;5034445;28;20029;-74
2022/07/09 08:46:58;;;;;;;1.35;0.90;;;23.20;99.90;;;;;;5040850;28;20030;-74
2022/07/09 08:49:25;;;;;;;1.58;0.70;;;23.00;99.90;;;;;;5032005;28;20116;-75
2022/07/09 08:51:54;;;;;;;1.85;0.77;;;22.90;99.90;;;;;;5033652;28;20068;-75
2022/07/09 08:54:20;;;;;;;2.63;1.00;;;22.90;99.90;;;;;;5042015;28;20108;-74
2022/07/09 08:56:46;;;;;;;2.17;0.70;;;23.20;99.90;;;;;;5046283;28;20029;-75
2022/07/09 08:59:11;;;;;;;3.88;1.00;;;23.40;99.90;;;;;;5044829;28;20080;-74
2022/07/09 09:01:37;;;;;;;1.10;0.77;;;23.50;99.90;;;;;;5042737;28;20036;-75
2022/07/09 09:04:03;;;;;;;2.78;0.70;;;24.00;99.90;;;;;;5037114;28;20025;-75
2022/07/09 09:06:28;;;;;;;1.25;0.65;;;24.40;99.90;;;;;;5047228;28;20021;-76
2022/07/09 09:08:57;;;;;;;1.23;0.70;;;24.60;99.00;;;;;;5041737;28;20481;-76
2022/07/09 09:11:24;;;;;;;1.42;0.63;;;24.40;99.20;;;;;;5034009;28;20017;-76
2022/07/09 09:13:51;;;;;;;2.00;0.55;;;24.10;98.70;;;;;;5050872;28;20067;-77
2022/07/09 09:16:18;;;;;;;3.03;0.57;;;23.90;98.70;;;;;;5049288;28;20021;-77
2022/07/09 09:18:47;;;;;;;2.10;0.60;;;23.90;98.10;;;;;;5038679;28;20060;-77
2022/07/09 09:21:13;;;;;;;1.25;0.60;;;24.10;98.40;;;;;;5040862;28;20028;-76
2022/07/09 09:23:44;;;;;;;1.27;0.60;;;24.30;97.80;;;;;;5042602;28;20036;-76
2022/07/09 09:26:16;;;;;;;1.45;0.63;;;24.40;97.50;;;;;;5045761;28;20040;-77
2022/07/09 09:28:53;;;;;;;2.00;0.63;;;24.40;95.90;;;;;;5035830;28;20025;-77
2022/07/09 09:31:27;;;;;;;1.80;0.70;;;24.50;95.90;;;;;;5033082;28;20081;-77
2022/07/09 09:34:09;;;;;;;1.00;0.50;;;24.70;95.40;;;;;;5035506;28;20056;-77
2022/07/09 09:36:54;;;;;;;0.80;0.60;;;24.80;93.60;;;;;;5042400;28;20633;-75
2022/07/09 09:39:22;;;;;;;0.95;0.60;;;24.70;93.00;;;;;;5040606;28;20674;-76
2022/07/09 09:41:51;;;;;;;3.28;0.70;;;24.50;93.30;;;;;;5044962;28;20490;-75
2022/07/09 09:44:26;;;;;;;2.20;0.50;;;24.30;93.40;;;;;;5041017;28;20040;-75
2022/07/09 09:46:53;;;;;;;0.90;0.50;;;24.10;93.50;;;;;;5039760;28;20064;-76
2022/07/09 09:49:19;;;;;;;2.42;0.50;;;24.00;93.10;;;;;;5043681;28;20025;-75
2022/07/09 09:51:53;;;;;;;0.50;0.50;;;23.90;93.50;;;;;;5042700;28;20029;-75
2022/07/09 09:54:20;;;;;;;0.80;0.43;;;24.10;92.30;;;;;;5044795;28;20493;-74
2022/07/09 09:56:47;;;;;;;1.05;0.40;;;24.20;92.30;;;;;;5046022;28;20033;-74
2022/07/09 09:59:12;;;;;;;1.33;0.50;;;24.50;92.30;;;;;;5040546;28;20035;-74
2022/07/09 10:01:40;;;;;;;1.15;0.43;;;24.70;91.10;;;;;;5039346;28;20109;-75
2022/07/09 10:04:06;;;;;;;0.68;0.60;;;24.50;90.80;;;;;;5040471;28;20310;-75
2022/07/09 10:06:33;;;;;;;1.50;0.57;;;24.40;91.20;;;;;;5035130;28;20029;-75
2022/07/09 10:09:04;;;;;;;0.65;0.60;;;24.20;91.60;;;;;;5045951;28;20037;-75
2022/07/09 10:11:48;;;;;;;1.27;0.40;;;24.10;92.00;;;;;;5041599;28;20025;-75
2022/07/09 10:14:35;;;;;;;1.88;0.63;;;24.40;92.10;;;;;;5039338;28;20021;-75
2022/07/09 10:17:14;;;;;;;1.42;0.60;;;24.60;91.30;;;;;;5038957;28;20124;-75
2022/07/09 10:19:51;;;;;;;0.60;0.57;;;24.70;91.00;;;;;;5042158;28;20116;-75
2022/07/09 10:22:17;;;;;;;1.38;0.40;;;24.50;90.00;;;;;;5046045;28;20033;-73
2022/07/09 10:24:45;;;;;;;1.38;0.50;;;24.40;90.10;;;;;;5044415;28;20039;-73
2022/07/09 10:27:12;;;;;;;0.60;0.50;;;24.20;90.50;;;;;;5041593;28;20029;-73
2022/07/09 10:29:56;;;;;;;0.88;0.52;;;24.10;91.10;;;;;;5039079;28;20041;-74
2022/07/09 10:32:30;;;;;;;2.97;0.63;;;24.00;91.50;;;;;;5034866;28;20037;-73
2022/07/09 10:35:00;;;;;;;2.35;0.70;;;23.80;91.90;;;;;;5037557;28;20125;-73
2022/07/09 10:37:31;;;;;;;1.52;0.70;;;23.70;91.70;;;;;;5009200;28;20034;-73
2022/07/09 10:40:04;;;;;;;0.80;0.47;;;23.50;91.70;;;;;;5019125;28;20033;-74
2022/07/09 10:42:30;;;;;;;0.57;0.52;;;23.50;91.90;;;;;;5024377;28;20029;-75
2022/07/09 10:44:55;;;;;;;2.28;0.80;;;23.30;92.10;;;;;;5026138;28;20038;-75
2022/07/09 10:47:21;;;;;;;2.15;0.73;;;23.20;92.60;;;;;;5021677;28;20137;-75
2022/07/09 10:49:47;;;;;;;1.58;0.50;;;23.20;93.00;;;;;;5027316;28;20025;-75
2022/07/09 10:52:12;;;;;;;1.05;0.50;;;23.20;92.70;;;;;;5027945;28;20053;-75
2022/07/09 10:54:48;;;;;;;0.60;0.60;;;23.10;92.30;;;;;;5032004;28;20529;-75
2022/07/09 10:57:14;;;;;;;2.10;0.60;;;22.90;92.60;;;;;;5024608;28;20033;-75
2022/07/09 10:59:46;;;;;;;1.15;0.60;;;22.80;92.90;;;;;;5016230;28;20029;-75
2022/07/09 11:02:21;;;;;;;0.60;0.60;;;22.70;93.10;;;;;;5029846;28;20037;-75
2022/07/09 11:04:51;;;;;;;0.90;0.50;;;22.70;93.40;;;;;;5025777;28;20034;-75
2022/07/09 11:07:24;;;;;;;44.10;3.05;;;22.50;93.20;;;;;;5023446;28;20041;-75
2022/07/09 11:09:50;;;;;;;3.97;0.80;;;22.40;93.50;;;;;;5022574;28;20060;-75
2022/07/09 11:12:21;;;;;;;1.33;0.70;;;22.30;94.10;;;;;;5026446;28;20033;-75
2022/07/09 11:14:50;;;;;;;0.65;0.60;;;22.40;99.90;;;;;;5027411;28;20129;-75
2022/07/09 11:17:18;;;;;;;1.38;0.80;;;22.20;99.70;;;;;;5021372;28;20064;-75
2022/07/09 11:19:44;;;;;;;1.45;0.70;;;22.20;99.60;;;;;;5019985;28;20100;-75
2022/07/09 11:22:09;;;;;;;1.40;0.80;;;22.20;99.90;;;;;;5027294;28;20116;-76
2022/07/09 11:24:35;;;;;;;0.60;0.55;;;22.30;99.90;;;;;;5019598;28;20160;-76
2022/07/09 11:27:02;;;;;;;2.53;0.80;;;22.30;99.90;;;;;;5023573;28;20030;-76
2022/07/09 11:29:28;;;;;;;1.45;0.80;;;22.40;99.90;;;;;;5024351;28;20789;-77
2022/07/09 11:31:54;;;;;;;1.10;0.80;;;22.50;98.40;;;;;;5025593;28;20145;-77
2022/07/09 11:34:20;;;;;;;1.33;0.77;;;22.60;98.20;;;;;;5020855;28;20116;-76
2022/07/09 11:36:46;;;;;;;1.63;0.98;;;22.70;98.70;;;;;;5028427;28;20033;-77
2022/07/09 11:39:29;;;;;;;2.00;0.80;;;22.90;98.00;;;;;;5024584;28;20029;-77
2022/07/09 11:41:57;;;;;;;4.47;0.80;;;23.00;97.00;;;;;;5025292;28;20035;-77
2022/07/09 11:44:23;;;;;;;3.42;1.15;;;23.10;95.30;;;;;;5017213;28;20018;-77
2022/07/09 11:47:02;;;;;;;1.20;1.00;;;23.10;95.00;;;;;;5044330;28;20032;-77
2022/07/09 11:49:39;;;;;;;2.22;0.90;;;23.20;95.00;;;;;;5031678;28;20028;-77
2022/07/09 11:52:20;;;;;;;1.30;1.10;;;23.30;95.40;;;;;;5022857;28;20025;-77
2022/07/09 11:55:02;;;;;;;1.05;0.88;;;23.50;94.60;;;;;;5028633;28;20022;-77
2022/07/09 11:57:29;;;;;;;0.98;0.73;;;23.60;94.40;;;;;;5024329;28;20405;-77
2022/07/09 11:59:55;;;;;;;1.73;0.85;;;23.60;93.90;;;;;;5020494;28;20444;-77
2022/07/09 12:02:33;;;;;;;1.65;0.98;;;23.70;94.00;;;;;;5015669;28;20132;-77
2022/07/09 12:04:59;;;;;;;1.27;0.80;;;23.70;92.80;;;;;;5023700;28;20053;-77
2022/07/09 12:07:25;;;;;;;1.73;1.00;;;23.80;93.10;;;;;;5003251;28;20037;-77
2022/07/09 12:10:10;;;;;;;2.50;0.90;;;23.80;92.80;;;;;;5023368;28;20080;-77
2022/07/09 12:12:37;;;;;;;3.25;0.90;;;23.80;91.90;;;;;;5039223;28;20502;-77
2022/07/09 12:15:04;;;;;;;1.75;0.80;;;23.80;91.90;;;;;;5021897;28;20060;-77
2022/07/09 12:17:31;;;;;;;2.47;1.02;;;23.90;92.00;;;;;;5023080;28;20049;-77
2022/07/09 12:19:58;;;;;;;2.50;0.70;;;23.90;92.00;;;;;;5017567;28;20085;-77
2022/07/09 12:22:25;;;;;;;2.00;0.80;;;24.00;91.00;;;;;;5019879;28;20022;-77
2022/07/09 12:24:52;;;;;;;0.88;0.82;;;24.00;91.60;;;;;;5023166;28;20108;-77
2022/07/09 12:27:19;;;;;;;1.30;0.90;;;24.00;91.30;;;;;;5021472;28;20509;-77
2022/07/09 12:29:45;;;;;;;4.32;0.95;;;24.10;90.90;;;;;;5025011;28;20464;-77
2022/07/09 12:32:11;;;;;;;2.53;0.88;;;24.40;91.40;;;;;;5021987;28;20619;-77
2022/07/09 12:34:36;;;;;;;1.80;0.82;;;24.70;91.50;;;;;;5023238;28;20030;-76
2022/07/09 12:37:02;;;;;;;4.57;0.88;;;25.00;91.60;;;;;;5039390;28;20033;-78
2022/07/09 12:39:28;;;;;;;2.25;1.00;;;25.20;87.50;;;;;;5044970;28;20032;-77
2022/07/09 12:41:54;;;;;;;3.38;0.88;;;25.30;86.50;;;;;;5042901;28;20041;-75
2022/07/09 12:44:20;;;;;;;0.90;0.70;;;25.30;85.00;;;;;;5043079;28;20071;-76
2022/07/09 12:46:45;;;;;;;0.70;0.70;;;25.20;83.40;;;;;;5030550;28;20116;-75